Time;durP1;ratioP1;P1;durP2;ratioP2;P2;SDS_P1;SDS_P2;PMS_P1;PMS_P2;Temp;Humidity;BMP_temperature;BMP_pressure;BME280_temperature;BME280_humidity;BME280_pressure;Samples;Min_cycle;Max_cycle;Signal;HPM_P1;HPM_P2
2022/01/20 12:20:52;;;;;;;2.70;1.50;;;;;;;-0.09;65.07;99119.10;105841;1309;545590;-80
2022/01/20 12:23:24;;;;;;;2.60;1.40;;;;;;;-0.12;64.62;99124.26;107987;1284;22923;-82
2022/01/20 12:25:51;;;;;;;1.80;1.20;;;;;;;-0.10;64.39;99124.98;108010;1284;23159;-83
2022/01/20 12:28:18;;;;;;;5.80;1.80;;;;;;;-0.03;64.24;99126.96;107867;1284;22614;-83
2022/01/20 12:30:48;;;;;;;1.80;1.20;;;;;;;0.12;63.77;99130.80;107872;1283;22496;-83
2022/01/20 12:33:23;;;;;;;3.80;1.40;;;;;;;0.46;62.09;99119.61;107841;1281;188390;-82
2022/01/20 12:35:54;;;;;;;2.80;1.50;;;;;;;0.57;60.85;99114.70;108683;1280;23017;-84
2022/01/20 12:38:26;;;;;;;2.30;1.30;;;;;;;0.54;60.29;99111.55;107612;1281;24244;-82
2022/01/20 12:41:05;;;;;;;1.70;1.20;;;;;;;0.71;60.19;99108.44;107667;1281;22503;-84
2022/01/20 12:43:40;;;;;;;3.00;1.50;;;;;;;0.67;59.57;99115.49;107502;1280;22634;-84
2022/01/20 12:46:09;;;;;;;4.10;1.20;;;;;;;0.59;59.26;99118.89;106940;1284;23200;-84
2022/01/20 12:48:37;;;;;;;1.50;0.90;;;;;;;0.51;59.19;99110.48;106939;1281;24281;-82
2022/01/20 12:51:08;;;;;;;3.00;1.10;;;;;;;0.45;58.98;99110.24;105793;1286;25258;-81
2022/01/20 12:53:39;;;;;;;3.90;1.50;;;;;;;0.38;58.70;99113.98;104955;1286;22869;-84
2022/01/20 12:56:09;;;;;;;1.90;1.20;;;;;;;0.31;58.46;99113.73;105322;1286;22618;-82
2022/01/20 12:58:47;;;;;;;1.70;1.00;;;;;;;0.20;57.14;99120.67;104962;1287;24231;-84
2022/01/20 13:01:15;;;;;;;1.20;1.00;;;;;;;0.11;57.04;99118.84;105148;1287;22650;-83
2022/01/20 13:03:43;;;;;;;2.20;1.10;;;;;;;0.10;57.29;99124.38;105204;1286;24233;-82
2022/01/20 13:06:22;;;;;;;3.50;1.50;;;;;;;0.10;57.38;99117.96;105369;1287;25227;-81
2022/01/20 13:09:04;;;;;;;3.90;1.20;;;;;;;0.19;57.80;99125.02;105342;1287;22816;-82
2022/01/20 13:11:41;;;;;;;3.10;1.80;;;;;;;0.18;56.32;99108.70;106109;1286;22551;-79
2022/01/20 13:14:11;;;;;;;2.90;1.20;;;;;;;0.16;56.49;99115.43;107690;1286;22698;-81
2022/01/20 13:16:50;;;;;;;2.60;1.30;;;;;;;0.11;56.36;99118.84;107634;1287;25426;-80
2022/01/20 13:19:19;;;;;;;1.90;1.20;;;;;;;0.06;56.87;99126.05;108309;1277;22579;-81
2022/01/20 13:21:52;;;;;;;3.00;1.30;;;;;;;0.03;58.54;99139.17;108301;1280;22552;-80
2022/01/20 13:24:29;;;;;;;3.10;1.30;;;;;;;-0.19;67.24;99137.81;108101;1277;25268;-81
2022/01/20 13:26:58;;;;;;;4.60;1.50;;;;;;;-0.45;71.04;99145.05;107372;1274;22671;-82
2022/01/20 13:29:37;;;;;;;2.10;1.10;;;;;;;-0.66;71.31;99148.88;107289;1274;22468;-81
2022/01/20 13:32:04;;;;;;;3.50;1.40;;;;;;;-0.80;71.23;99164.72;107917;1274;22597;-81
2022/01/20 13:34:31;;;;;;;4.30;1.40;;;;;;;-0.89;71.21;99161.80;107395;1274;23103;-82
2022/01/20 13:36:59;;;;;;;5.40;1.50;;;;;;;-0.98;71.31;99160.27;106851;1274;25467;-82
2022/01/20 13:39:38;;;;;;;3.00;1.60;;;;;;;-0.96;71.43;99165.13;106828;1274;23084;-81
2022/01/20 13:45:03;;;;;;;6.50;2.10;;;;;;;-1.00;71.58;99161.10;106872;1275;25372;-81
2022/01/20 13:45:17;;;;;;;4.50;2.20;;;;;;;-1.09;72.17;99153.85;106723;1274;24391;-82
2022/01/20 13:47:54;;;;;;;5.10;2.40;;;;;;;-1.13;73.62;99147.55;106467;1275;22543;-82
2022/01/20 13:50:28;;;;;;;6.60;2.50;;;;;;;-1.19;75.84;99144.69;106712;1274;24392;-81
2022/01/20 13:52:57;;;;;;;5.90;2.50;;;;;;;-1.22;76.51;99140.83;107145;1274;22756;-78
2022/01/20 13:55:31;;;;;;;4.80;2.10;;;;;;;-1.28;76.60;99137.95;106821;1275;27065;-78
2022/01/20 13:58:01;;;;;;;5.80;1.90;;;;;;;-1.34;75.52;99141.83;106523;1274;23405;-79
2022/01/20 14:00:53;;;;;;;4.50;1.90;;;;;;;-1.40;74.81;99143.79;106432;1274;22540;-79
2022/01/20 14:03:21;;;;;;;8.50;2.60;;;;;;;-1.45;75.01;99136.61;106458;1274;22771;-79
2022/01/20 14:05:50;;;;;;;6.60;2.30;;;;;;;-1.41;75.20;99148.60;107041;1274;22557;-79
2022/01/20 14:08:18;;;;;;;4.70;2.30;;;;;;;-1.38;75.03;99152.11;108214;1274;22561;-77
2022/01/20 14:10:46;;;;;;;5.90;2.40;;;;;;;-1.34;74.70;99153.92;107952;1274;22621;-78
2022/01/20 14:13:13;;;;;;;6.50;1.80;;;;;;;-1.34;74.27;99163.41;107598;1274;24424;-80
2022/01/20 14:15:41;;;;;;;10.60;2.90;;;;;;;-1.35;74.10;99156.48;108662;1272;22552;-79
2022/01/20 14:18:08;;;;;;;6.10;2.70;;;;;;;-1.32;74.37;99175.54;108842;1274;22607;-75
2022/01/20 14:20:37;;;;;;;6.30;2.20;;;;;;;-1.36;78.22;99190.66;109088;1274;22575;-78
2022/01/20 14:23:07;;;;;;;3.00;1.50;;;;;;;-1.50;80.76;99217.85;109353;1274;22554;-77
2022/01/20 14:25:35;;;;;;;3.20;1.50;;;;;;;-1.64;82.01;99225.17;108606;1274;22574;-76
2022/01/20 14:28:03;;;;;;;2.60;1.30;;;;;;;-1.78;85.53;99209.48;109278;1274;22541;-78
2022/01/20 14:30:32;;;;;;;3.30;1.20;;;;;;;-1.85;85.89;99195.36;108680;1280;22667;-77
2022/01/20 14:33:00;;;;;;;3.60;2.30;;;;;;;-1.82;86.06;99196.45;108398;1284;22690;-79
2022/01/20 14:35:29;;;;;;;4.00;1.80;;;;;;;-1.84;85.35;99194.52;107791;1284;22545;-77
2022/01/20 14:38:17;;;;;;;2.40;0.90;;;;;;;-1.85;84.42;99199.48;107881;1282;22678;-77
2022/01/20 14:40:44;;;;;;;4.70;1.40;;;;;;;-1.83;83.05;99200.56;107809;1283;24177;-77
2022/01/20 14:43:11;;;;;;;2.50;1.40;;;;;;;-1.78;81.67;99192.23;107650;1283;23125;-77
2022/01/20 14:45:39;;;;;;;2.10;1.40;;;;;;;-1.79;80.14;99186.68;107586;1284;24237;-77
2022/01/20 14:48:08;;;;;;;2.50;1.30;;;;;;;-1.71;79.77;99195.30;107599;1277;22553;-75
2022/01/20 14:50:35;;;;;;;7.00;2.00;;;;;;;-1.68;77.93;99201.26;108427;1274;22578;-78
2022/01/20 14:53:08;;;;;;;4.50;1.50;;;;;;;-1.66;76.13;99196.10;108680;1274;22713;-76
2022/01/20 14:55:35;;;;;;;4.30;1.70;;;;;;;-1.66;74.59;99202.49;108364;1274;22616;-79
2022/01/20 14:58:02;;;;;;;3.40;1.50;;;;;;;-1.63;74.15;99202.21;108224;1274;24159;-76
2022/01/20 15:00:31;;;;;;;6.80;1.80;;;;;;;-1.57;73.73;99205.63;108195;1274;22539;-84
2022/01/20 15:02:58;;;;;;;3.70;2.30;;;;;;;-1.54;72.87;99203.42;108619;1274;22556;-83
2022/01/20 15:05:26;;;;;;;3.50;2.20;;;;;;;-1.53;72.71;99203.10;107835;1277;23333;-86
2022/01/20 15:07:53;;;;;;;3.70;1.90;;;;;;;-1.50;72.19;99200.05;106806;1280;22671;-86
2022/01/20 15:10:20;;;;;;;5.00;2.00;;;;;;;-1.49;70.85;99200.42;106329;1277;22555;-86
2022/01/20 15:12:47;;;;;;;1.90;1.40;;;;;;;-1.48;70.58;99210.11;106652;1277;24205;-87
2022/01/20 15:15:17;;;;;;;3.60;1.70;;;;;;;-1.46;70.21;99208.60;106620;1280;22500;-87
2022/01/20 15:17:44;;;;;;;5.30;1.60;;;;;;;-1.41;70.24;99210.77;106866;1277;24409;-89
2022/01/20 15:20:12;;;;;;;3.60;1.50;;;;;;;-1.37;69.89;99213.95;106741;1279;22639;-87
2022/01/20 15:22:40;;;;;;;6.10;2.00;;;;;;;-1.38;69.55;99212.58;106462;1281;24338;-86
2022/01/20 15:25:09;;;;;;;5.60;2.10;;;;;;;-1.39;70.53;99217.89;106704;1278;22659;-87
2022/01/20 15:27:36;;;;;;;4.50;2.00;;;;;;;-1.46;71.14;99218.09;106588;1278;23943;-87
2022/01/20 15:30:05;;;;;;;1.80;1.50;;;;;;;-1.55;74.91;99219.48;106219;1283;25618;-88
2022/01/20 15:32:40;;;;;;;5.40;2.00;;;;;;;-1.76;78.41;99233.72;106332;1283;23229;-86
2022/01/20 15:35:08;;;;;;;4.40;1.70;;;;;;;-1.93;81.06;99230.38;105862;1283;22914;-86
2022/01/20 15:37:36;;;;;;;5.10;2.10;;;;;;;-2.05;82.11;99226.84;106050;1283;22575;-80
2022/01/20 15:40:13;;;;;;;2.30;1.70;;;;;;;-2.09;82.22;99227.45;105574;1281;22767;-81
2022/01/20 15:42:41;;;;;;;1.70;1.20;;;;;;;-2.08;81.73;99229.35;105648;1283;23222;-76
2022/01/20 15:45:10;;;;;;;4.20;2.00;;;;;;;-2.08;80.39;99228.15;105196;1287;24492;-80
2022/01/20 15:47:39;;;;;;;5.80;1.70;;;;;;;-2.08;79.32;99229.88;104962;1288;25371;-80
2022/01/20 15:50:08;;;;;;;4.80;2.20;;;;;;;-2.12;78.24;99231.52;105044;1290;22647;-82
2022/01/20 15:52:37;;;;;;;2.80;2.00;;;;;;;-2.19;83.28;99228.41;104912;1291;24066;-79
2022/01/20 15:55:07;;;;;;;5.10;2.50;;;;;;;-2.26;84.49;99225.15;105245;1284;22687;-85
2022/01/20 15:57:34;;;;;;;3.20;1.90;;;;;;;-2.22;83.98;99226.94;105326;1284;22582;-80
2022/01/20 16:00:16;;;;;;;8.60;2.10;;;;;;;-2.21;82.38;99230.08;105579;1281;22499;-76
2022/01/20 16:02:44;;;;;;;3.00;1.90;;;;;;;-2.18;80.66;99234.80;105849;1278;25593;-79
2022/01/20 16:05:13;;;;;;;3.10;2.30;;;;;;;-2.14;78.99;99245.08;106242;1277;22872;-79
2022/01/20 16:07:41;;;;;;;4.20;2.20;;;;;;;-2.14;79.60;99238.71;106089;1274;22542;-80
2022/01/20 16:10:08;;;;;;;4.30;2.00;;;;;;;-2.19;81.68;99242.55;106108;1280;23136;-80
2022/01/20 16:12:35;;;;;;;3.00;1.90;;;;;;;-2.26;82.73;99252.57;106327;1275;25253;-79
2022/01/20 16:15:06;;;;;;;4.60;2.30;;;;;;;-2.28;81.39;99256.65;105741;1281;25415;-78
2022/01/20 16:17:34;;;;;;;3.10;2.00;;;;;;;-2.29;81.29;99259.24;105900;1281;25255;-81
2022/01/20 16:20:02;;;;;;;2.80;2.10;;;;;;;-2.27;81.13;99254.79;105705;1282;24792;-80
2022/01/20 16:22:30;;;;;;;3.60;2.40;;;;;;;-2.28;80.00;99260.63;105942;1278;26597;-79
2022/01/20 16:24:57;;;;;;;6.80;2.80;;;;;;;-2.26;80.07;99257.92;105918;1277;22625;-80
2022/01/20 16:27:25;;;;;;;4.00;2.30;;;;;;;-2.22;79.57;99259.23;105624;1282;23948;-78
2022/01/20 16:29:52;;;;;;;4.40;3.00;;;;;;;-2.21;78.60;99260.98;105382;1284;25373;-79
2022/01/20 16:32:20;;;;;;;3.70;2.50;;;;;;;-2.18;77.68;99261.21;104885;1289;22714;-78
2022/01/20 16:34:48;;;;;;;5.10;3.00;;;;;;;-2.18;77.22;99260.35;105685;1284;22607;-83
2022/01/20 16:37:19;;;;;;;3.00;2.60;;;;;;;-2.17;76.86;99255.70;105548;1285;24540;-81
2022/01/20 16:39:48;;;;;;;3.70;2.50;;;;;;;-2.16;76.42;99258.15;104914;1291;22605;-81
2022/01/20 16:42:15;;;;;;;4.00;2.60;;;;;;;-2.15;76.03;99267.67;104814;1290;22599;-79
2022/01/20 16:44:42;;;;;;;2.40;2.00;;;;;;;-2.13;75.74;99274.80;104848;1290;22541;-81
2022/01/20 16:47:10;;;;;;;4.80;2.90;;;;;;;-2.10;75.59;99275.02;105000;1288;25688;-81
2022/01/20 16:49:37;;;;;;;5.10;2.50;;;;;;;-2.08;75.39;99287.34;104858;1288;22855;-78
2022/01/20 16:52:05;;;;;;;3.30;2.10;;;;;;;-2.07;75.17;99288.90;104861;1288;25632;-78
2022/01/20 16:54:32;;;;;;;5.70;2.40;;;;;;;-2.07;74.79;99296.48;104882;1288;22626;-76
2022/01/20 16:57:00;;;;;;;3.40;2.20;;;;;;;-2.08;74.78;99297.48;104961;1287;23935;-80
2022/01/20 16:59:27;;;;;;;4.10;2.20;;;;;;;-2.10;74.82;99286.92;105744;1281;24231;-80
2022/01/20 17:01:54;;;;;;;4.80;2.90;;;;;;;-2.10;74.62;99296.95;105111;1285;23952;-81
2022/01/20 17:04:22;;;;;;;4.10;2.80;;;;;;;-2.11;74.70;99305.54;105454;1284;22518;-78
2022/01/20 17:06:50;;;;;;;2.90;2.10;;;;;;;-2.10;74.69;99306.45;106436;1278;22771;-81
2022/01/20 17:09:17;;;;;;;3.40;2.20;;;;;;;-2.08;74.62;99309.25;106496;1278;23876;-81
2022/01/20 17:11:48;;;;;;;3.90;2.50;;;;;;;-2.06;74.56;99316.55;105928;1281;25384;-79
2022/01/20 17:14:19;;;;;;;7.90;2.50;;;;;;;-2.03;74.59;99328.70;106642;1277;22473;-80
2022/01/20 17:16:47;;;;;;;4.60;2.50;;;;;;;-2.02;74.47;99327.52;106860;1281;22524;-78
2022/01/20 17:19:14;;;;;;;4.50;2.30;;;;;;;-1.99;74.21;99332.92;107062;1278;23315;-78
2022/01/20 17:21:41;;;;;;;2.90;2.10;;;;;;;-1.99;74.01;99334.30;106129;1278;23213;-78
2022/01/20 17:24:09;;;;;;;3.10;1.80;;;;;;;-2.00;73.97;99332.90;106248;1281;23676;-77
2022/01/20 17:26:37;;;;;;;3.70;2.30;;;;;;;-1.99;73.95;99340.86;106819;1271;23957;-76
2022/01/20 17:29:06;;;;;;;5.60;2.40;;;;;;;-1.99;73.76;99344.14;108264;1274;22693;-78
2022/01/20 17:31:34;;;;;;;4.20;2.50;;;;;;;-1.97;73.66;99346.25;108554;1277;23755;-77
2022/01/20 17:34:01;;;;;;;4.10;2.40;;;;;;;-1.98;73.63;99350.20;106884;1278;25833;-78
2022/01/20 17:36:28;;;;;;;2.80;2.20;;;;;;;-1.96;73.46;99351.63;108232;1277;22563;-75
2022/01/20 17:38:55;;;;;;;5.10;2.40;;;;;;;-1.94;73.21;99360.13;108625;1278;22604;-76
2022/01/20 17:41:22;;;;;;;3.90;2.40;;;;;;;-1.96;73.29;99363.88;106665;1278;25412;-79
2022/01/20 17:43:50;;;;;;;3.70;2.10;;;;;;;-1.96;72.83;99360.41;106712;1277;24215;-78
2022/01/20 17:46:18;;;;;;;3.70;2.00;;;;;;;-1.98;72.82;99369.02;106821;1277;22577;-78
2022/01/20 17:48:47;;;;;;;4.20;1.90;;;;;;;-1.96;72.93;99368.70;106617;1278;25380;-77
2022/01/20 17:51:15;;;;;;;4.70;2.10;;;;;;;-1.95;72.79;99372.20;106864;1272;23096;-79
2022/01/20 17:53:43;;;;;;;4.40;2.00;;;;;;;-1.93;72.92;99372.23;106044;1277;24355;-79
2022/01/20 17:56:10;;;;;;;4.80;2.50;;;;;;;-1.92;72.61;99376.05;105993;1275;24431;-79
2022/01/20 17:58:38;;;;;;;4.50;2.30;;;;;;;-1.94;72.69;99372.56;106033;1277;25248;-78
2022/01/20 18:01:05;;;;;;;4.40;2.20;;;;;;;-1.94;72.79;99375.32;106056;1275;22617;-79
2022/01/20 18:03:33;;;;;;;3.60;2.10;;;;;;;-1.92;72.86;99376.23;105813;1280;22694;-80
2022/01/20 18:06:00;;;;;;;4.50;2.70;;;;;;;-1.91;72.81;99378.86;105549;1281;22558;-77
2022/01/20 18:08:27;;;;;;;5.60;2.90;;;;;;;-1.92;72.97;99382.63;105271;1287;22575;-76
2022/01/20 18:10:54;;;;;;;4.70;2.70;;;;;;;-1.93;72.89;99386.21;105183;1287;22647;-79
2022/01/20 18:13:22;;;;;;;4.10;2.60;;;;;;;-1.94;73.10;99397.76;105630;1281;23104;-81
2022/01/20 18:15:50;;;;;;;6.60;3.40;;;;;;;-1.94;73.18;99391.37;105455;1284;22670;-82
2022/01/20 18:18:18;;;;;;;5.60;2.40;;;;;;;-1.93;73.30;99396.74;105685;1283;24189;-82
2022/01/20 18:21:02;;;;;;;4.90;3.00;;;;;;;-1.91;73.27;99399.04;105808;1278;24210;-80
2022/01/20 18:23:30;;;;;;;6.90;3.20;;;;;;;-1.91;73.38;99404.41;106563;1277;22652;-80
2022/01/20 18:25:58;;;;;;;4.40;2.30;;;;;;;-1.89;73.30;99397.70;106274;1274;24244;-80
2022/01/20 18:28:27;;;;;;;5.30;2.60;;;;;;;-1.87;73.28;99404.50;107087;1271;22563;-78
2022/01/20 18:30:55;;;;;;;6.30;2.90;;;;;;;-1.86;73.29;99403.48;107493;1271;22547;-79
2022/01/20 18:33:22;;;;;;;3.70;2.20;;;;;;;-1.84;73.22;99409.23;107136;1274;22574;-80
2022/01/20 18:35:50;;;;;;;3.80;2.20;;;;;;;-1.85;73.11;99410.58;107014;1271;23931;-80
2022/01/20 18:38:18;;;;;;;5.10;2.50;;;;;;;-1.87;73.06;99415.18;107048;1273;22546;-83
2022/01/20 18:40:46;;;;;;;5.60;1.90;;;;;;;-1.89;73.08;99416.70;107076;1275;22961;-80
2022/01/20 18:43:13;;;;;;;3.30;2.40;;;;;;;-1.87;73.07;99417.27;106727;1274;25256;-78
2022/01/20 18:45:41;;;;;;;6.30;2.40;;;;;;;-1.86;72.78;99414.17;106059;1281;25355;-77
2022/01/20 18:48:08;;;;;;;4.40;2.10;;;;;;;-1.90;72.96;99423.23;105655;1286;22669;-78
2022/01/20 18:50:36;;;;;;;5.90;2.20;;;;;;;-1.91;72.85;99423.89;105542;1286;22576;-78
2022/01/20 18:53:05;;;;;;;4.60;2.00;;;;;;;-1.96;72.65;99414.79;105287;1287;22551;-77
2022/01/20 18:55:36;;;;;;;4.60;2.90;;;;;;;-1.93;72.91;99427.10;105374;1286;25681;-79
2022/01/20 18:58:07;;;;;;;5.00;2.30;;;;;;;-1.93;72.92;99422.80;105459;1286;22671;-78
2022/01/20 19:00:34;;;;;;;3.80;2.20;;;;;;;-1.93;72.89;99427.30;105507;1282;26499;-78
2022/01/20 19:03:02;;;;;;;9.50;2.10;;;;;;;-1.94;72.67;99435.38;105518;1280;22811;-79
2022/01/20 19:05:30;;;;;;;6.90;2.20;;;;;;;-1.97;72.80;99437.88;105945;1278;23967;-77
2022/01/20 19:07:58;;;;;;;3.00;2.00;;;;;;;-2.01;72.85;99431.58;106287;1274;26548;-78
2022/01/20 19:10:25;;;;;;;5.70;2.50;;;;;;;-2.03;73.21;99435.15;106433;1274;23762;-78
2022/01/20 19:12:52;;;;;;;4.80;2.90;;;;;;;-2.03;73.42;99437.73;106167;1277;22914;-79
2022/01/20 19:15:21;;;;;;;7.00;2.80;;;;;;;-2.04;73.58;99433.91;106181;1275;22537;-78
2022/01/20 19:17:49;;;;;;;5.10;2.40;;;;;;;-2.13;73.72;99434.71;106329;1274;25248;-78
2022/01/20 19:20:18;;;;;;;5.80;2.70;;;;;;;-2.18;73.92;99450.78;105917;1275;25264;-77
2022/01/20 19:22:46;;;;;;;7.80;3.50;;;;;;;-2.20;74.13;99446.27;106421;1274;22568;-78
2022/01/20 19:25:16;;;;;;;8.30;3.30;;;;;;;-2.19;74.42;99447.85;106195;1274;24404;-77
2022/01/20 19:27:44;;;;;;;7.10;3.40;;;;;;;-2.16;74.57;99444.27;106334;1274;23251;-78
2022/01/20 19:30:12;;;;;;;8.70;4.00;;;;;;;-2.14;74.55;99451.44;106250;1271;25459;-80
2022/01/20 19:32:40;;;;;;;5.80;3.30;;;;;;;-2.12;74.59;99446.64;106182;1271;22549;-79
2022/01/20 19:35:07;;;;;;;6.50;2.80;;;;;;;-2.07;74.73;99451.95;106097;1272;22541;-81
2022/01/20 19:37:36;;;;;;;5.70;3.50;;;;;;;-2.02;74.88;99441.05;105919;1277;22556;-80
2022/01/20 19:40:08;;;;;;;6.90;3.60;;;;;;;-1.99;74.66;99448.89;105810;1278;25663;-80
2022/01/20 19:42:37;;;;;;;8.50;3.50;;;;;;;-1.95;74.85;99449.86;106650;1277;22564;-82
2022/01/20 19:45:07;;;;;;;4.30;2.70;;;;;;;-1.94;74.28;99454.70;105766;1277;25628;-80
2022/01/20 19:47:36;;;;;;;6.40;3.00;;;;;;;-1.99;74.09;99453.71;105870;1277;22568;-79
2022/01/20 19:50:07;;;;;;;6.60;3.20;;;;;;;-1.99;74.18;99457.34;105812;1276;22714;-78
2022/01/20 19:52:36;;;;;;;6.40;3.30;;;;;;;-1.99;73.84;99465.96;105900;1277;22560;-78
2022/01/20 19:55:05;;;;;;;5.80;3.50;;;;;;;-2.01;73.63;99466.08;105962;1276;23683;-79
2022/01/20 19:57:33;;;;;;;6.00;3.60;;;;;;;-2.05;73.45;99467.70;106168;1271;22750;-78
2022/01/20 20:00:01;;;;;;;8.80;3.90;;;;;;;-2.05;73.38;99471.51;106064;1271;25691;-80
2022/01/20 20:02:49;;;;;;;7.70;3.20;;;;;;;-2.02;73.23;99477.13;105592;1281;26531;-81
2022/01/20 20:05:43;;;;;;;4.80;3.50;;;;;;;-2.00;73.05;99475.61;105864;1281;23938;-81
2022/01/20 20:08:13;;;;;;;6.90;3.80;;;;;;;-1.93;73.07;99481.81;105771;1280;24355;-81
2022/01/20 20:10:58;;;;;;;6.30;3.40;;;;;;;-1.95;72.53;99481.26;105677;1280;22726;-81
2022/01/20 20:13:25;;;;;;;6.70;3.50;;;;;;;-1.94;72.07;99478.34;105865;1279;22876;-80
2022/01/20 20:15:52;;;;;;;8.80;4.00;;;;;;;-1.92;71.66;99485.80;105657;1280;22556;-80
2022/01/20 20:18:20;;;;;;;7.00;4.00;;;;;;;-1.92;71.63;99488.75;106002;1280;24095;-83
2022/01/20 20:21:16;;;;;;;6.50;4.40;;;;;;;-1.94;70.88;99485.26;105977;1279;25415;-82
2022/01/20 20:23:44;;;;;;;;;;;;;;;-1.89;70.48;99493.84;106337;1280;25248;-87
2022/01/20 20:26:12;;;;;;;10.50;3.60;;;;;;;-1.90;69.98;99497.27;105417;1284;22624;-83
2022/01/20 20:28:39;;;;;;;7.40;3.20;;;;;;;-1.91;69.85;99503.98;106282;1280;22704;-84
2022/01/20 20:31:06;;;;;;;9.00;3.30;;;;;;;-1.90;69.48;99498.84;106261;1278;22617;-84
2022/01/20 20:33:34;;;;;;;7.00;3.10;;;;;;;-1.91;69.14;99506.06;106317;1277;22557;-81
2022/01/20 20:36:01;;;;;;;8.00;4.00;;;;;;;-1.90;68.88;99503.30;106512;1277;25996;-82
2022/01/20 20:38:29;;;;;;;4.90;2.70;;;;;;;-1.90;68.61;99498.15;107353;1277;22545;-83
2022/01/20 20:41:12;;;;;;;8.80;2.80;;;;;;;-1.90;68.30;99509.71;108480;1277;22589;-80
2022/01/20 20:43:39;;;;;;;7.70;2.80;;;;;;;-1.88;68.05;99515.79;108132;1271;22584;-81
2022/01/20 20:46:07;;;;;;;5.50;3.30;;;;;;;-1.84;67.46;99516.75;109064;1274;23092;-80
2022/01/20 20:48:34;;;;;;;6.80;3.40;;;;;;;-1.83;67.20;99516.08;109205;1271;23013;-79
2022/01/20 20:51:02;;;;;;;4.00;2.80;;;;;;;-1.81;67.22;99518.75;108370;1271;22547;-79
2022/01/20 20:53:30;;;;;;;7.30;3.70;;;;;;;-1.75;66.42;99523.55;106633;1277;25601;-77
2022/01/20 20:55:59;;;;;;;5.70;3.40;;;;;;;-1.70;66.20;99532.81;106143;1277;22726;-77
2022/01/20 20:58:26;;;;;;;4.90;2.00;;;;;;;-1.69;66.05;99536.67;105594;1281;24291;-80
2022/01/20 21:00:53;;;;;;;7.50;3.50;;;;;;;-1.69;65.90;99543.05;105696;1281;25235;-79
2022/01/20 21:03:20;;;;;;;3.90;2.70;;;;;;;-1.68;65.73;99544.98;105609;1281;22739;-79
2022/01/20 21:05:47;;;;;;;6.80;3.20;;;;;;;-1.68;65.09;99542.90;105425;1282;24258;-81
2022/01/20 21:08:14;;;;;;;7.70;3.40;;;;;;;-1.68;65.09;99552.05;104887;1287;24013;-79
2022/01/20 21:10:42;;;;;;;8.30;2.90;;;;;;;-1.68;64.43;99553.27;105261;1286;25540;-83
2022/01/20 21:13:09;;;;;;;4.80;2.80;;;;;;;-1.68;64.26;99554.30;106078;1280;22560;-86
2022/01/20 21:15:39;;;;;;;7.80;3.60;;;;;;;-1.68;64.30;99559.48;106170;1280;25416;-86
2022/01/20 21:18:07;;;;;;;7.20;2.60;;;;;;;-1.66;64.27;99556.59;106480;1274;22622;-81
2022/01/20 21:20:35;;;;;;;4.80;3.00;;;;;;;-1.65;64.26;99558.18;106467;1274;22888;-86
2022/01/20 21:23:02;;;;;;;3.10;2.20;;;;;;;-1.65;63.77;99558.70;106859;1275;25260;-79
2022/01/20 21:25:29;;;;;;;6.20;3.00;;;;;;;-1.66;63.89;99558.50;106148;1277;25602;-87
2022/01/20 21:27:56;;;;;;;3.80;1.60;;;;;;;-1.66;63.77;99561.26;106568;1271;23889;-84
2022/01/20 21:30:23;;;;;;;3.90;2.20;;;;;;;-1.66;63.57;99561.43;106355;1271;22573;-84
2022/01/20 21:32:51;;;;;;;4.50;2.40;;;;;;;-1.66;63.26;99563.67;106423;1271;24315;-81
2022/01/20 21:35:18;;;;;;;7.70;2.70;;;;;;;-1.66;62.96;99566.27;106568;1271;22697;-83
2022/01/20 21:37:46;;;;;;;5.50;2.50;;;;;;;-1.65;63.32;99560.41;106415;1274;24261;-82
2022/01/20 21:40:13;;;;;;;5.10;2.10;;;;;;;-1.66;62.98;99559.20;106398;1274;25430;-79
2022/01/20 21:42:41;;;;;;;5.40;2.90;;;;;;;-1.66;62.86;99565.23;106154;1277;22546;-86
2022/01/20 21:45:09;;;;;;;3.80;2.20;;;;;;;-1.66;62.17;99559.70;106399;1274;25444;-85
2022/01/20 21:47:36;;;;;;;6.00;2.10;;;;;;;-1.65;62.55;99570.95;106446;1274;25822;-84
2022/01/20 21:50:05;;;;;;;3.80;2.30;;;;;;;-1.64;62.39;99567.35;106507;1274;22713;-85
2022/01/20 21:52:32;;;;;;;4.50;1.90;;;;;;;-1.63;62.14;99563.25;106242;1280;25408;-86
2022/01/20 21:55:01;;;;;;;5.00;2.10;;;;;;;-1.63;62.30;99569.30;106145;1277;25467;-78
2022/01/20 21:57:28;;;;;;;5.70;2.60;;;;;;;-1.61;62.24;99570.02;106199;1277;25672;-83
2022/01/20 21:59:56;;;;;;;3.90;2.20;;;;;;;-1.59;62.27;99575.93;106155;1277;22562;-83
2022/01/20 22:02:23;;;;;;;5.60;2.80;;;;;;;-1.60;61.95;99576.09;106124;1274;25859;-84
2022/01/20 22:04:51;;;;;;;5.20;3.10;;;;;;;-1.60;61.54;99572.46;106515;1277;24272;-83
2022/01/20 22:07:18;;;;;;;7.60;2.50;;;;;;;-1.62;61.56;99570.34;106290;1277;23200;-86
2022/01/20 22:09:46;;;;;;;7.40;2.70;;;;;;;-1.65;61.35;99576.84;106627;1277;22682;-85
2022/01/20 22:12:13;;;;;;;3.10;2.40;;;;;;;-1.68;61.62;99571.23;106595;1271;23998;-80
2022/01/20 22:14:42;;;;;;;6.00;2.50;;;;;;;-1.67;61.43;99583.31;106518;1271;22610;-81
2022/01/20 22:17:34;;;;;;;4.10;2.30;;;;;;;-1.68;61.28;99585.21;106922;1271;22710;-81
2022/01/20 22:20:33;;;;;;;7.80;2.50;;;;;;;-1.70;61.24;99592.73;107130;1271;23832;-82
2022/01/20 22:23:00;;;;;;;8.70;3.10;;;;;;;-1.73;62.29;99589.18;106860;1271;22697;-84
2022/01/20 22:25:27;;;;;;;3.20;2.30;;;;;;;-1.75;62.49;99592.77;106665;1271;24284;-83
2022/01/20 22:27:54;;;;;;;8.10;2.60;;;;;;;-1.74;62.54;99597.80;106776;1274;22671;-83
2022/01/20 22:30:22;;;;;;;3.60;2.20;;;;;;;-1.72;62.10;99604.95;107161;1277;22599;-81
2022/01/20 22:32:49;;;;;;;6.20;2.80;;;;;;;-1.71;61.72;99609.11;107526;1277;25252;-78
2022/01/20 22:35:36;;;;;;;6.00;2.50;;;;;;;-1.73;63.02;99602.65;106502;1277;25415;-80
2022/01/20 22:38:06;;;;;;;4.10;2.30;;;;;;;-1.75;64.20;99601.77;106849;1277;29052;-81
2022/01/20 22:40:35;;;;;;;6.60;2.60;;;;;;;-1.72;62.94;99607.67;107096;1276;22564;-81
2022/01/20 22:43:02;;;;;;;4.00;2.00;;;;;;;-1.70;62.13;99608.10;107056;1276;23955;-81
2022/01/20 22:45:30;;;;;;;5.70;2.20;;;;;;;-1.69;61.80;99616.59;106055;1278;25473;-82
2022/01/20 22:47:57;;;;;;;4.70;2.20;;;;;;;-1.72;62.02;99607.19;106107;1272;26497;-78
2022/01/20 22:50:24;;;;;;;6.80;2.60;;;;;;;-1.75;62.29;99618.14;106379;1271;22537;-81
2022/01/20 22:52:51;;;;;;;5.10;2.30;;;;;;;-1.74;61.91;99617.48;106398;1271;22557;-81
2022/01/20 22:55:18;;;;;;;3.90;2.30;;;;;;;-1.74;61.84;99626.13;106344;1271;22568;-81
2022/01/20 22:57:46;;;;;;;5.10;2.20;;;;;;;-1.73;61.84;99632.71;106439;1271;23450;-83
2022/01/20 23:04:17;;;;;;;4.90;2.10;;;;;;;-1.77;61.00;99631.92;106316;1271;23296;-83
2022/01/20 23:06:57;;;;;;;5.20;2.20;;;;;;;-1.79;61.05;99631.86;106412;1271;23479;-80
2022/01/20 23:09:25;;;;;;;5.20;2.60;;;;;;;-1.79;60.87;99626.52;106364;1271;24240;-83
2022/01/20 23:11:52;;;;;;;4.30;2.60;;;;;;;-1.81;60.74;99633.02;106413;1271;24205;-80
2022/01/20 23:14:20;;;;;;;3.80;2.30;;;;;;;-1.82;60.65;99640.23;106345;1271;25408;-83
2022/01/20 23:17:04;;;;;;;4.00;2.60;;;;;;;-1.83;60.53;99641.40;106531;1271;22588;-84
2022/01/20 23:22:02;;;;;;;8.30;2.70;;;;;;;-1.87;60.88;99639.93;106639;1271;22557;-82
2022/01/20 23:25:08;;;;;;;4.50;2.70;;;;;;;-1.89;60.85;99643.83;106088;1274;22606;-84
2022/01/20 23:27:40;;;;;;;6.10;2.80;;;;;;;-1.91;60.90;99637.55;105897;1277;25402;-83
2022/01/20 23:30:08;;;;;;;5.30;2.60;;;;;;;-1.91;60.70;99648.77;105702;1282;26052;-83
2022/01/20 23:32:36;;;;;;;6.50;2.80;;;;;;;-1.90;60.81;99650.02;105626;1282;26547;-84
2022/01/20 23:39:22;;;;;;;5.80;2.70;;;;;;;-1.94;61.23;99663.00;105040;1287;22676;-83
2022/01/20 23:48:44;;;;;;;4.60;2.00;;;;;;;-1.92;60.95;99675.50;107069;1284;22590;-78
2022/01/20 23:51:13;;;;;;;6.30;2.70;;;;;;;-1.94;61.02;99675.95;107709;1284;22600;-79
2022/01/20 23:53:43;;;;;;;5.40;2.20;;;;;;;-1.92;61.00;99673.92;108474;1271;22614;-79
2022/01/20 23:56:15;;;;;;;8.50;2.60;;;;;;;-1.92;60.91;99672.02;108706;1271;22588;-79
2022/01/20 23:58:43;;;;;;;5.20;2.60;;;;;;;-1.92;60.84;99680.66;109007;1271;24279;-80
